Grandeur Of The Seas — C6SE3 — position and weather

sailwx.info

Track history (hours):
 
Tides and Currents Weather Stations Pressure Air Temp Water Temp Dewpoint Dewpoint Depression Visibility Wind Speed Wind Dir Waves Ship Positions

Grandeur Of The Seas

Operator: Royal Caribbean Cruises Ltd

Last reported at 2015-Mar-04 02:32 UTC. Time now 2015-Mar-04 07:02 UTC.
Position N 37°54' W 076°09'.

Type: Passenger vessel. MMSI: 311315000.

Date/timePositionNaut miles runAvg speedWind from/ knotsBaromVisibWave heightAir tempDewpointWater temp
2015-Mar-04 02:32N 37°54' W 076°09'5719.0
2015-Mar-03 23:34N 38°49' W 076°25'1716.8
2015-Mar-03 22:34N 39°06' W 076°24'1212.1
2015-Mar-03 21:33N 39°15' W 076°34'2 1.6
2015-Mar-03 20:31N 39°16' W 076°36'0 0.0
2015-Mar-03 19:31N 39°16' W 076°36'0 0.0
2015-Mar-03 18:31N 39°16' W 076°36'0 0.0
2015-Mar-03 17:31N 39°16' W 076°36'0 0.0
2015-Mar-03 16:31N 39°16' W 076°36'0 0.0
2015-Mar-03 15:31N 39°16' W 076°36'0 0.0
2015-Mar-03 14:31N 39°16' W 076°36'0 0.0
2015-Mar-03 13:31N 39°16' W 076°36'0 0.0
2015-Mar-03 12:31N 39°16' W 076°36'1 0.9
2015-Mar-03 11:33N 39°15' W 076°35'9 8.6
2015-Mar-03 10:33N 39°10' W 076°26'1211.8
2015-Mar-03 09:33N 38°59' W 076°23'5914.2
2015-Mar-03 05:25N 38°01' W 076°12'43618.6
2015-Mar-02 06:00N 30°48' W 075°06'68514.3 140 / 131026.827.0 3.020.020.023.0
2015-Feb-28 06:00N 19°24' W 074°36'26311.0 050 / 291015.027.0 26.024.629.0
2015-Feb-27 06:00N 18°48' W 079°12'28511.9 100 / 41014.127.0 2.026.024.629.0
2015-Feb-26 06:00N 19°54' W 084°06'16519.6 140 / 271010.527.0 26.024.628.0
2015-Feb-25 21:33N 20°34' W 086°57'6 5.5
2015-Feb-25 20:31N 20°29' W 086°59'0 0.0
2015-Feb-25 19:30N 20°29' W 086°59'0 0.0
2015-Feb-25 18:30N 20°29' W 086°59'0 0.0
2015-Feb-25 17:30N 20°29' W 086°59'0 0.0
2015-Feb-25 16:30N 20°29' W 086°59'0 0.0
2015-Feb-25 15:30N 20°29' W 086°59'0 0.0
2015-Feb-25 14:30N 20°29' W 086°59'0 0.0
2015-Feb-25 13:33N 20°29' W 086°59'0 0.0
2015-Feb-25 12:33N 20°29' W 086°59'1 0.9
2015-Feb-25 11:33N 20°30' W 086°59'7313.2
2015-Feb-25 06:00N 21°18' W 086°00'36615.2 150 / 141014.527.0 1.024.024.029.0
2015-Feb-24 06:00N 24°42' W 080°30'42117.5 350 / 81018.927.0 1.523.023.026.0
2015-Feb-23 06:00N 30°54' W 076°48'42016.8 160 / 111021.727.0 20.018.523.0
2015-Feb-22 05:05N 37°52' W 076°09'1217.9
2015-Feb-22 04:24N 38°04' W 076°13'  
Track history (hours):
 
Tides and Currents Weather Stations Pressure Air Temp Water Temp Dewpoint Dewpoint Depression Visibility Wind Speed Wind Dir Waves Ship Positions

Grandeur Of The Seas

Operator: Royal Caribbean Cruises Ltd

Last reported at 2015-Mar-04 02:32 UTC. Time now 2015-Mar-04 07:02 UTC.
Position N 37°54' W 076°09'.

Type: Passenger vessel. MMSI: 311315000.

Date/timePositionNaut miles runAvg speedWind from/ knotsBaromVisibWave heightAir tempDewpointWater temp
2015-Mar-04 02:32N 37°54' W 076°09'5719.0
2015-Mar-03 23:34N 38°49' W 076°25'1716.8
2015-Mar-03 22:34N 39°06' W 076°24'1212.1
2015-Mar-03 21:33N 39°15' W 076°34'2 1.6
2015-Mar-03 20:31N 39°16' W 076°36'0 0.0
2015-Mar-03 19:31N 39°16' W 076°36'0 0.0
2015-Mar-03 18:31N 39°16' W 076°36'0 0.0
2015-Mar-03 17:31N 39°16' W 076°36'0 0.0
2015-Mar-03 16:31N 39°16' W 076°36'0 0.0
2015-Mar-03 15:31N 39°16' W 076°36'0 0.0
2015-Mar-03 14:31N 39°16' W 076°36'0 0.0
2015-Mar-03 13:31N 39°16' W 076°36'0 0.0
2015-Mar-03 12:31N 39°16' W 076°36'1 0.9
2015-Mar-03 11:33N 39°15' W 076°35'9 8.6
2015-Mar-03 10:33N 39°10' W 076°26'1211.8
2015-Mar-03 09:33N 38°59' W 076°23'5914.2
2015-Mar-03 05:25N 38°01' W 076°12'43618.6
2015-Mar-02 06:00N 30°48' W 075°06'68514.3 140 / 131026.827.0 3.020.020.023.0
2015-Feb-28 06:00N 19°24' W 074°36'26311.0 050 / 291015.027.0 26.024.629.0
2015-Feb-27 06:00N 18°48' W 079°12'28511.9 100 / 41014.127.0 2.026.024.629.0
2015-Feb-26 06:00N 19°54' W 084°06'16519.6 140 / 271010.527.0 26.024.628.0
2015-Feb-25 21:33N 20°34' W 086°57'6 5.5
2015-Feb-25 20:31N 20°29' W 086°59'0 0.0
2015-Feb-25 19:30N 20°29' W 086°59'0 0.0
2015-Feb-25 18:30N 20°29' W 086°59'0 0.0
2015-Feb-25 17:30N 20°29' W 086°59'0 0.0
2015-Feb-25 16:30N 20°29' W 086°59'0 0.0
2015-Feb-25 15:30N 20°29' W 086°59'0 0.0
2015-Feb-25 14:30N 20°29' W 086°59'0 0.0
2015-Feb-25 13:33N 20°29' W 086°59'0 0.0
2015-Feb-25 12:33N 20°29' W 086°59'1 0.9
2015-Feb-25 11:33N 20°30' W 086°59'7313.2
2015-Feb-25 06:00N 21°18' W 086°00'36615.2 150 / 141014.527.0 1.024.024.029.0
2015-Feb-24 06:00N 24°42' W 080°30'42117.5 350 / 81018.927.0 1.523.023.026.0
2015-Feb-23 06:00N 30°54' W 076°48'42016.8 160 / 111021.727.0 20.018.523.0
2015-Feb-22 05:05N 37°52' W 076°09'1217.9
2015-Feb-22 04:24N 38°04' W 076°13'  

Dump ship's entire track history